createdAt,value
2022-10-04T00:01:09.273Z,0.95
2022-10-04T00:03:52.365Z,0.75
2022-10-04T00:06:25.998Z,0.90
2022-10-04T00:09:00.314Z,1.00
2022-10-04T00:11:38.098Z,0.88
2022-10-04T00:14:16.398Z,1.00
2022-10-04T00:16:44.372Z,1.02
2022-10-04T00:19:20.555Z,1.27
2022-10-04T00:21:59.984Z,1.15
2022-10-04T00:24:28.275Z,0.98
2022-10-04T00:27:21.823Z,1.70
2022-10-04T00:30:03.860Z,1.62
2022-10-04T00:32:42.298Z,1.65
2022-10-04T00:35:27.616Z,1.80
2022-10-04T00:38:14.995Z,1.60
2022-10-04T00:40:55.421Z,2.83
2022-10-04T00:43:37.811Z,1.80
2022-10-04T00:46:21.480Z,1.40
2022-10-04T00:49:02.883Z,1.60
2022-10-04T00:51:29.763Z,1.90
2022-10-04T00:54:24.076Z,2.42
2022-10-04T00:56:56.091Z,1.52
2022-10-04T00:59:41.973Z,1.60
2022-10-04T01:02:46.127Z,1.45
2022-10-04T01:05:28.480Z,1.60
2022-10-04T01:08:07.213Z,1.42
2022-10-04T01:10:47.512Z,1.50
2022-10-04T01:13:19.278Z,1.70
2022-10-04T01:16:01.273Z,1.20
2022-10-04T01:18:31.715Z,1.10
2022-10-04T01:21:19.910Z,1.55
2022-10-04T01:23:49.727Z,1.27
2022-10-04T01:26:46.063Z,1.08
2022-10-04T01:29:17.575Z,1.15
2022-10-04T01:31:50.236Z,1.15
2022-10-04T01:34:19.566Z,0.93
2022-10-04T01:36:48.813Z,1.10
2022-10-04T01:39:17.768Z,0.95
2022-10-04T01:42:00.190Z,1.00
2022-10-04T01:44:56.510Z,0.88
2022-10-04T01:47:48.684Z,0.77
2022-10-04T01:50:22.019Z,0.57
2022-10-04T01:52:53.779Z,0.50
2022-10-04T01:55:26.817Z,0.40
2022-10-04T01:58:15.009Z,0.60
2022-10-04T02:00:48.938Z,0.62
2022-10-04T02:03:25.404Z,0.50
2022-10-04T02:05:57.645Z,0.80
2022-10-04T02:08:29.458Z,0.70
2022-10-04T02:10:57.595Z,0.40
2022-10-04T02:13:29.551Z,0.93
2022-10-04T02:15:58.586Z,0.50
2022-10-04T02:18:27.097Z,1.00
2022-10-04T02:20:55.226Z,1.08
2022-10-04T02:23:23.942Z,0.50
2022-10-04T02:25:52.063Z,0.40
2022-10-04T02:28:19.321Z,1.40
2022-10-04T02:31:09.689Z,0.60
2022-10-04T02:33:45.497Z,0.60
2022-10-04T02:36:13.992Z,0.40
2022-10-04T02:39:16.045Z,0.50
2022-10-04T02:42:02.753Z,0.40
2022-10-04T02:44:56.653Z,0.70
2022-10-04T02:47:29.616Z,0.50
2022-10-04T02:50:06.408Z,0.50
2022-10-04T02:52:55.313Z,0.62
2022-10-04T02:55:29.565Z,1.05
2022-10-04T02:57:58.483Z,0.57
2022-10-04T03:00:31.608Z,0.40
2022-10-04T03:03:28.234Z,0.30
2022-10-04T03:05:58.205Z,0.68
2022-10-04T03:08:26.495Z,0.40
2022-10-04T03:10:53.547Z,0.65
2022-10-04T03:13:21.583Z,0.40
2022-10-04T03:15:50.344Z,0.32
2022-10-04T03:18:19.142Z,0.43
2022-10-04T03:20:46.318Z,0.47
2022-10-04T03:23:17.463Z,0.62
2022-10-04T03:25:47.207Z,0.57
2022-10-04T03:28:14.198Z,0.50
2022-10-04T03:30:45.697Z,0.47
2022-10-04T03:33:19.565Z,0.50
2022-10-04T03:35:49.191Z,0.40
2022-10-04T03:38:18.068Z,0.50
2022-10-04T03:40:53.215Z,0.65
2022-10-04T03:43:24.428Z,1.08
2022-10-04T03:45:52.482Z,0.82
2022-10-04T03:48:29.202Z,0.77
2022-10-04T03:50:56.635Z,0.60
2022-10-04T03:53:43.521Z,0.85
2022-10-04T03:56:23.231Z,0.85
2022-10-04T03:58:51.662Z,0.73
2022-10-04T04:01:37.862Z,0.80
2022-10-04T04:04:22.300Z,0.80
2022-10-04T04:06:56.112Z,0.77
2022-10-04T04:09:34.719Z,0.82
2022-10-04T04:12:03.590Z,0.62
2022-10-04T04:14:30.569Z,0.90
2022-10-04T04:17:27.367Z,0.62
2022-10-04T04:20:11.983Z,0.57
2022-10-04T04:22:41.870Z,0.60
2022-10-04T04:25:14.861Z,0.60
2022-10-04T04:27:43.817Z,0.98
2022-10-04T04:30:16.915Z,0.90
2022-10-04T04:32:50.207Z,0.65
2022-10-04T04:35:32.719Z,0.50
2022-10-04T04:38:14.346Z,0.60
2022-10-04T04:40:41.647Z,0.52
2022-10-04T04:43:14.326Z,0.60
2022-10-04T04:45:41.651Z,0.77
2022-10-04T04:48:13.719Z,0.50
2022-10-04T04:50:41.779Z,0.40
2022-10-04T04:53:28.956Z,0.60
2022-10-04T04:56:10.206Z,0.32
2022-10-04T04:58:46.632Z,0.62
2022-10-04T05:01:36.164Z,0.40
2022-10-04T05:04:12.628Z,0.50
2022-10-04T05:06:46.505Z,0.45
2022-10-04T05:09:34.796Z,0.50
2022-10-04T05:12:17.050Z,0.50
2022-10-04T05:14:54.600Z,0.40
2022-10-04T05:17:34.573Z,0.47
2022-10-04T05:20:02.737Z,0.50
2022-10-04T05:22:31.438Z,0.70
2022-10-04T05:25:02.717Z,0.55
2022-10-04T05:27:35.557Z,0.52
2022-10-04T05:30:11.444Z,0.52
2022-10-04T05:33:04.977Z,0.40
2022-10-04T05:35:48.617Z,0.30
2022-10-04T05:38:30.888Z,0.40
2022-10-04T05:41:04.167Z,0.40
2022-10-04T05:43:37.402Z,0.40
2022-10-04T05:46:25.249Z,0.50
2022-10-04T05:49:01.214Z,0.50
2022-10-04T05:51:37.726Z,0.47
2022-10-04T05:54:05.729Z,0.43
2022-10-04T05:56:55.324Z,0.30
2022-10-04T05:59:48.836Z,0.25
2022-10-04T06:02:42.401Z,0.30
2022-10-04T06:05:35.924Z,0.22
2022-10-04T06:08:24.270Z,0.20
2022-10-04T06:10:57.638Z,0.20
2022-10-04T06:13:39.144Z,0.20
2022-10-04T06:16:32.082Z,0.30
2022-10-04T06:19:24.282Z,0.20
2022-10-04T06:21:54.230Z,0.20
2022-10-04T06:24:37.370Z,0.37
2022-10-04T06:27:19.763Z,0.20
2022-10-04T06:30:04.961Z,0.20
2022-10-04T06:33:26.654Z,0.20
2022-10-04T06:36:18.469Z,0.20
2022-10-04T06:39:12.824Z,0.10
2022-10-04T06:42:03.267Z,0.20
2022-10-04T06:44:48.015Z,0.30
2022-10-04T06:47:47.620Z,0.20
2022-10-04T06:50:26.370Z,0.20
2022-10-04T06:53:30.890Z,0.15
2022-10-04T06:56:15.088Z,0.10
2022-10-04T06:59:30.228Z,0.10
2022-10-04T07:02:03.945Z,0.20
2022-10-04T07:05:07.167Z,0.20
2022-10-04T07:07:35.947Z,0.13
2022-10-04T07:10:27.235Z,0.00
2022-10-04T07:13:10.797Z,0.10
2022-10-04T07:16:10.257Z,0.20
2022-10-04T07:19:09.683Z,0.20
2022-10-04T07:21:46.799Z,0.10
2022-10-04T07:24:24.959Z,0.35
2022-10-04T07:26:54.186Z,0.20
2022-10-04T07:29:28.666Z,0.00
2022-10-04T07:32:04.445Z,0.15
2022-10-04T07:34:37.373Z,0.17
2022-10-04T07:37:10.589Z,0.20
2022-10-04T07:39:44.567Z,0.10
2022-10-04T07:42:36.724Z,0.20
2022-10-04T07:45:23.508Z,0.10
2022-10-04T07:47:51.503Z,0.30
2022-10-04T07:50:34.398Z,0.30
2022-10-04T07:53:30.695Z,0.28
2022-10-04T07:56:15.244Z,0.30
2022-10-04T07:58:47.530Z,0.20
2022-10-04T08:01:30.161Z,0.30
2022-10-04T08:04:34.631Z,0.30
2022-10-04T08:07:05.415Z,0.30
2022-10-04T08:09:41.618Z,0.20
2022-10-04T08:12:21.460Z,0.30
2022-10-04T08:14:54.479Z,0.30
2022-10-04T08:17:50.375Z,0.30
2022-10-04T08:20:38.644Z,0.20
2022-10-04T08:23:08.577Z,0.30
2022-10-04T08:25:47.303Z,0.30
2022-10-04T08:28:47.913Z,0.13
2022-10-04T08:31:39.683Z,0.20
2022-10-04T08:34:21.667Z,0.15
2022-10-04T08:37:30.185Z,0.10
2022-10-04T08:40:33.338Z,0.20
2022-10-04T08:43:25.835Z,0.25
2022-10-04T08:46:14.028Z,0.30
2022-10-04T08:48:52.911Z,0.20
2022-10-04T08:51:22.612Z,0.30
2022-10-04T08:53:49.471Z,0.17
2022-10-04T08:56:54.098Z,0.10
2022-10-04T08:59:59.133Z,0.20
2022-10-04T09:02:41.765Z,0.20
2022-10-04T09:05:17.715Z,0.10
2022-10-04T09:08:07.803Z,0.20
2022-10-04T09:10:42.414Z,0.17
2022-10-04T09:13:32.384Z,0.10
2022-10-04T09:16:25.883Z,0.10
2022-10-04T09:19:47.447Z,0.10
2022-10-04T09:22:37.652Z,0.10
2022-10-04T09:25:23.215Z,0.10
2022-10-04T09:28:16.570Z,0.15
2022-10-04T09:30:53.426Z,0.30
2022-10-04T09:33:44.908Z,0.20
2022-10-04T09:36:17.839Z,0.22
2022-10-04T09:39:25.103Z,0.20
2022-10-04T09:42:25.033Z,0.30
2022-10-04T09:45:18.119Z,0.20
2022-10-04T09:47:51.582Z,0.20
2022-10-04T09:50:24.318Z,0.20
2022-10-04T09:53:12.795Z,0.28
2022-10-04T09:55:54.977Z,0.20
2022-10-04T09:58:51.662Z,0.20
2022-10-04T10:01:18.732Z,0.40
2022-10-04T10:04:18.226Z,0.30
2022-10-04T10:06:48.641Z,0.30
2022-10-04T10:09:47.624Z,0.20
2022-10-04T10:13:31.811Z,0.17
2022-10-04T10:16:31.103Z,0.10
2022-10-04T10:19:28.328Z,0.10
2022-10-04T10:22:01.396Z,0.20
2022-10-04T10:25:03.319Z,0.40
2022-10-04T10:27:52.493Z,0.25
2022-10-04T10:30:57.636Z,0.20
2022-10-04T10:33:43.608Z,0.30
2022-10-04T10:36:17.273Z,0.20
2022-10-04T10:38:53.041Z,0.20
2022-10-04T10:41:35.823Z,0.20
2022-10-04T10:44:33.495Z,0.30
2022-10-04T10:47:18.990Z,0.30
2022-10-04T10:50:18.802Z,0.20
2022-10-04T10:53:07.652Z,0.10
2022-10-04T10:56:05.067Z,0.20
2022-10-04T10:58:34.940Z,0.30
2022-10-04T11:01:49.762Z,0.20
2022-10-04T11:04:54.825Z,0.20
2022-10-04T11:07:47.414Z,0.17
2022-10-04T11:10:42.654Z,0.10
2022-10-04T11:13:28.470Z,0.20
2022-10-04T11:16:34.403Z,0.22
2022-10-04T11:19:29.251Z,0.20
2022-10-04T11:22:08.298Z,0.10
2022-10-04T11:25:03.091Z,0.20
2022-10-04T11:27:35.468Z,0.20
2022-10-04T11:30:26.631Z,0.35
2022-10-04T11:33:28.764Z,0.20
2022-10-04T11:36:17.197Z,0.15
2022-10-04T11:38:48.567Z,0.20
2022-10-04T11:41:28.875Z,0.20
2022-10-04T11:44:17.654Z,0.20
2022-10-04T11:47:08.165Z,0.00
2022-10-04T11:49:44.168Z,0.20
2022-10-04T11:52:30.691Z,0.45
2022-10-04T11:55:00.297Z,0.10
2022-10-04T11:57:53.683Z,0.20
2022-10-04T12:00:23.025Z,0.10
2022-10-04T12:03:02.760Z,0.05
2022-10-04T12:06:01.302Z,0.00
2022-10-04T12:08:48.976Z,0.10
2022-10-04T12:11:21.540Z,0.10
2022-10-04T12:13:48.396Z,0.10
2022-10-04T12:16:47.491Z,0.10
2022-10-04T12:19:39.879Z,0.10
2022-10-04T12:22:22.506Z,0.08
2022-10-04T12:25:01.641Z,0.03
2022-10-04T12:27:56.410Z,0.10
2022-10-04T12:30:30.915Z,0.03
2022-10-04T12:33:26.545Z,0.00
2022-10-04T12:36:21.797Z,0.13
2022-10-04T12:39:03.465Z,0.10
2022-10-04T12:41:54.345Z,0.10
2022-10-04T12:44:30.232Z,0.20
2022-10-04T12:47:18.923Z,0.10
2022-10-04T12:49:56.438Z,0.10
2022-10-04T12:52:27.321Z,0.13
2022-10-04T12:55:10.650Z,0.10
2022-10-04T12:58:00.450Z,0.20
2022-10-04T13:00:34.705Z,0.10
2022-10-04T13:03:26.603Z,0.10
2022-10-04T13:06:16.431Z,0.20
2022-10-04T13:08:56.503Z,0.28
2022-10-04T13:12:20.033Z,0.20
2022-10-04T13:15:11.148Z,0.32
2022-10-04T13:17:50.140Z,0.37
2022-10-04T13:20:26.387Z,0.30
2022-10-04T13:23:05.207Z,0.20
2022-10-04T13:26:03.844Z,0.20
2022-10-04T13:28:53.128Z,0.30
2022-10-04T13:31:38.173Z,0.40
2022-10-04T13:34:26.710Z,0.32
2022-10-04T13:37:20.542Z,0.30
2022-10-04T13:39:50.358Z,0.30
2022-10-04T13:42:48.824Z,0.28
2022-10-04T13:45:43.497Z,0.20
2022-10-04T13:48:26.201Z,0.20
2022-10-04T13:51:24.750Z,0.30
2022-10-04T13:54:50.237Z,0.20
2022-10-04T13:57:39.932Z,0.40
2022-10-04T14:00:20.514Z,0.25
2022-10-04T14:03:11.167Z,0.30
2022-10-04T14:05:44.034Z,0.20
2022-10-04T14:08:10.915Z,0.17
2022-10-04T14:11:13.632Z,0.10
2022-10-04T14:14:05.826Z,0.32
2022-10-04T14:16:44.371Z,0.10
2022-10-04T14:19:39.302Z,0.20
2022-10-04T14:22:22.624Z,0.20
2022-10-04T14:25:21.214Z,0.10
2022-10-04T14:28:14.431Z,0.10
2022-10-04T14:31:23.998Z,0.10
2022-10-04T14:34:04.007Z,0.20
2022-10-04T14:36:50.769Z,0.20
2022-10-04T14:39:55.168Z,0.15
2022-10-04T14:42:40.400Z,0.20
2022-10-04T14:45:52.055Z,0.20
2022-10-04T14:48:43.520Z,0.20
2022-10-04T14:51:16.409Z,0.50
2022-10-04T14:54:08.211Z,0.20
2022-10-04T14:56:51.181Z,0.20
2022-10-04T14:59:38.228Z,0.37
2022-10-04T15:02:31.825Z,0.22
2022-10-04T15:05:31.714Z,0.30
2022-10-04T15:08:25.093Z,0.30
2022-10-04T15:10:52.883Z,0.40
2022-10-04T15:13:41.646Z,0.40
2022-10-04T15:16:53.105Z,0.55
2022-10-04T15:19:26.479Z,0.50
2022-10-04T15:21:56.233Z,0.50
2022-10-04T15:24:42.646Z,0.70
2022-10-04T15:27:33.707Z,0.68
2022-10-04T15:30:09.452Z,0.70
2022-10-04T15:32:51.238Z,1.15
2022-10-04T15:35:25.259Z,0.50
2022-10-04T15:38:29.475Z,0.98
2022-10-04T15:41:06.499Z,0.82
2022-10-04T15:43:43.971Z,1.15
2022-10-04T15:46:42.302Z,1.05
2022-10-04T15:49:49.288Z,0.80
2022-10-04T15:52:41.071Z,0.90
2022-10-04T15:55:13.855Z,0.73
2022-10-04T15:58:05.320Z,0.80
2022-10-04T16:00:38.312Z,0.95
2022-10-04T16:03:14.064Z,1.02
2022-10-04T16:06:08.574Z,1.02
2022-10-04T16:09:00.425Z,1.05
2022-10-04T16:11:30.092Z,0.80
2022-10-04T16:14:15.770Z,1.12
2022-10-04T16:17:01.704Z,1.00
2022-10-04T16:20:02.083Z,0.70
2022-10-04T16:22:34.239Z,0.82
2022-10-04T16:25:19.704Z,0.90
2022-10-04T16:27:56.344Z,0.77
2022-10-04T16:30:47.147Z,0.98
2022-10-04T16:33:36.703Z,1.30
2022-10-04T16:36:22.347Z,1.00
2022-10-04T16:39:13.323Z,1.12
2022-10-04T16:41:45.655Z,1.27
2022-10-04T16:44:49.346Z,1.27
2022-10-04T16:47:29.501Z,1.73
2022-10-04T16:49:59.561Z,1.20
2022-10-04T16:53:01.131Z,1.10
2022-10-04T16:55:46.824Z,1.58
2022-10-04T16:58:29.745Z,1.50
2022-10-04T17:01:25.857Z,1.30
2022-10-04T17:04:14.067Z,1.20
2022-10-04T17:07:23.288Z,1.77
2022-10-04T17:10:27.558Z,1.12
2022-10-04T17:12:58.258Z,0.93
2022-10-04T17:15:36.738Z,1.00
2022-10-04T17:18:19.741Z,1.52
2022-10-04T17:20:58.966Z,1.15
2022-10-04T17:24:03.709Z,1.23
2022-10-04T17:26:47.038Z,0.80
2022-10-04T17:29:54.322Z,1.62
2022-10-04T17:33:11.919Z,1.75
2022-10-04T17:36:07.111Z,1.20
2022-10-04T17:38:56.786Z,1.02
2022-10-04T17:42:05.455Z,1.20
2022-10-04T17:45:09.592Z,1.40
2022-10-04T17:48:12.882Z,1.50
2022-10-04T17:51:09.030Z,2.12
2022-10-04T17:53:59.115Z,1.30
2022-10-04T17:56:33.066Z,1.40
2022-10-04T17:59:05.767Z,1.10
2022-10-04T18:01:49.576Z,1.20
2022-10-04T18:04:30.545Z,0.90
2022-10-04T18:07:18.907Z,1.05
2022-10-04T18:09:48.707Z,1.58
2022-10-04T18:12:44.733Z,1.10
2022-10-04T18:15:33.320Z,1.20
2022-10-04T18:18:22.375Z,0.80
2022-10-04T18:20:57.969Z,1.12
2022-10-04T18:23:30.118Z,1.02
2022-10-04T18:26:10.964Z,1.10
2022-10-04T18:28:38.614Z,1.15
2022-10-04T18:31:39.063Z,1.35
2022-10-04T18:34:37.715Z,1.35
2022-10-04T18:37:20.155Z,1.30
2022-10-04T18:39:53.227Z,1.00
2022-10-04T18:42:30.602Z,1.00
2022-10-04T18:45:20.533Z,1.42
2022-10-04T18:47:50.809Z,1.65
2022-10-04T18:50:20.475Z,1.30
2022-10-04T18:53:08.317Z,1.17
2022-10-04T18:55:43.835Z,1.10
2022-10-04T18:58:43.513Z,1.45
2022-10-04T19:01:50.748Z,1.62
2022-10-04T19:04:35.075Z,1.45
2022-10-04T19:07:32.832Z,1.25
2022-10-04T19:10:07.083Z,1.30
2022-10-04T19:12:46.793Z,1.42
2022-10-04T19:15:25.710Z,1.20
2022-10-04T19:18:01.572Z,1.58
2022-10-04T19:20:51.487Z,1.37
2022-10-04T19:23:49.252Z,1.25
2022-10-04T19:26:32.275Z,1.33
2022-10-04T19:29:25.075Z,1.70
2022-10-04T19:32:05.596Z,1.40
2022-10-04T19:34:44.530Z,1.40
2022-10-04T19:37:27.754Z,1.50
2022-10-04T19:40:15.465Z,1.10
2022-10-04T19:43:10.298Z,1.05
2022-10-04T19:46:02.331Z,1.62
2022-10-04T19:48:38.899Z,1.17
2022-10-04T19:51:16.228Z,1.17
2022-10-04T19:53:45.663Z,0.93
2022-10-04T19:56:21.977Z,1.83
2022-10-04T19:59:09.240Z,1.95
2022-10-04T20:01:36.809Z,1.55
2022-10-04T20:04:33.988Z,1.35
2022-10-04T20:07:03.797Z,1.30
2022-10-04T20:09:36.660Z,1.20
2022-10-04T20:12:05.492Z,1.50
2022-10-04T20:14:32.358Z,1.58
2022-10-04T20:17:02.225Z,1.50
2022-10-04T20:19:29.058Z,1.23
2022-10-04T20:22:18.661Z,1.00
2022-10-04T20:24:45.568Z,1.48
2022-10-04T20:27:28.601Z,1.37
2022-10-04T20:29:57.081Z,1.30
2022-10-04T20:32:26.684Z,1.50
2022-10-04T20:34:55.167Z,1.33
2022-10-04T20:37:42.224Z,1.60
2022-10-04T20:40:09.354Z,1.50
2022-10-04T20:42:38.326Z,2.75
2022-10-04T20:45:11.090Z,1.60
2022-10-04T20:47:48.155Z,1.85
2022-10-04T20:50:24.096Z,1.52
2022-10-04T20:52:54.501Z,1.37
2022-10-04T20:55:28.335Z,1.30
2022-10-04T20:57:58.405Z,1.40
2022-10-04T21:00:27.502Z,1.37
2022-10-04T21:03:21.904Z,1.02
2022-10-04T21:06:02.746Z,1.55
2022-10-04T21:08:30.321Z,1.50
2022-10-04T21:11:21.084Z,1.75
2022-10-04T21:13:58.831Z,1.87
2022-10-04T21:16:50.460Z,1.73
2022-10-04T21:19:33.210Z,1.60
2022-10-04T21:22:05.111Z,1.70
2022-10-04T21:24:42.447Z,1.62
2022-10-04T21:27:26.196Z,2.55
2022-10-04T21:29:53.803Z,1.37
2022-10-04T21:32:25.087Z,1.70
2022-10-04T21:34:54.141Z,1.62
2022-10-04T21:37:21.846Z,1.77
2022-10-04T21:39:48.891Z,1.83
2022-10-04T21:42:16.137Z,2.15
2022-10-04T21:44:43.307Z,1.60
2022-10-04T21:47:10.668Z,1.50
2022-10-04T21:49:37.757Z,1.58
2022-10-04T21:52:05.028Z,1.70
2022-10-04T21:54:32.131Z,2.90
2022-10-04T21:56:59.477Z,1.70
2022-10-04T21:59:26.500Z,1.65
2022-10-04T22:01:53.536Z,1.58
2022-10-04T22:04:20.558Z,2.03
2022-10-04T22:06:48.311Z,1.58
2022-10-04T22:09:15.608Z,1.58
2022-10-04T22:11:42.566Z,1.70
2022-10-04T22:14:09.899Z,1.85
2022-10-04T22:16:36.907Z,1.20
2022-10-04T22:19:04.383Z,1.75
2022-10-04T22:21:31.339Z,1.42
2022-10-04T22:23:58.643Z,2.25
2022-10-04T22:26:26.793Z,1.60
2022-10-04T22:28:55.397Z,1.40
2022-10-04T22:31:26.679Z,1.90
2022-10-04T22:33:55.627Z,1.80
2022-10-04T22:36:34.014Z,1.20
2022-10-04T22:39:09.366Z,1.83
2022-10-04T22:41:42.066Z,1.83
2022-10-04T22:44:18.071Z,1.48
2022-10-04T22:46:48.839Z,1.83
2022-10-04T22:49:19.765Z,1.73
2022-10-04T22:51:49.015Z,1.73
2022-10-04T22:54:21.886Z,1.40
2022-10-04T22:56:50.753Z,1.30
2022-10-04T22:59:19.864Z,1.42
2022-10-04T23:01:47.757Z,1.60
2022-10-04T23:04:23.990Z,1.30
2022-10-04T23:06:52.166Z,2.28
2022-10-04T23:09:20.013Z,1.23
2022-10-04T23:11:47.078Z,1.37
2022-10-04T23:14:14.059Z,1.48
2022-10-04T23:16:40.968Z,1.00
2022-10-04T23:19:13.672Z,1.40
2022-10-04T23:21:44.135Z,1.40
2022-10-04T23:24:20.046Z,1.50
2022-10-04T23:26:50.018Z,1.00
2022-10-04T23:29:21.378Z,1.65
2022-10-04T23:31:49.883Z,1.00
2022-10-04T23:34:23.759Z,1.08
2022-10-04T23:36:52.021Z,1.17
2022-10-04T23:39:25.067Z,1.30
2022-10-04T23:41:54.054Z,1.00
2022-10-04T23:44:24.499Z,1.40
2022-10-04T23:46:52.086Z,1.00
2022-10-04T23:49:21.339Z,1.20
2022-10-04T23:51:50.178Z,0.98
2022-10-04T23:54:20.411Z,1.05
2022-10-04T23:56:48.882Z,1.02
2022-10-04T23:59:22.006Z,1.48
